sensor_id;sensor_type;location;lat;lon;timestamp;temperature;humidity
23073;DHT22;34865;51.046;3.732;2022-12-10T00:01:52;1.90;99.90
23073;DHT22;34865;51.046;3.732;2022-12-10T00:04:23;1.70;99.90
23073;DHT22;34865;51.046;3.732;2022-12-10T00:06:52;1.80;99.90
23073;DHT22;34865;51.046;3.732;2022-12-10T00:09:21;1.70;99.90
23073;DHT22;34865;51.046;3.732;2022-12-10T00:11:55;1.70;99.90
23073;DHT22;34865;51.046;3.732;2022-12-10T00:14:32;1.40;99.90
23073;DHT22;34865;51.046;3.732;2022-12-10T00:17:00;1.00;99.90
23073;DHT22;34865;51.046;3.732;2022-12-10T00:19:33;1.00;99.90
23073;DHT22;34865;51.046;3.732;2022-12-10T00:22:05;1.00;99.90
23073;DHT22;34865;51.046;3.732;2022-12-10T00:24:31;1.10;99.90
23073;DHT22;34865;51.046;3.732;2022-12-10T00:26:57;1.00;99.90
23073;DHT22;34865;51.046;3.732;2022-12-10T00:29:37;1.00;99.90
23073;DHT22;34865;51.046;3.732;2022-12-10T00:32:17;1.00;99.90
23073;DHT22;34865;51.046;3.732;2022-12-10T00:35:03;1.30;99.90
23073;DHT22;34865;51.046;3.732;2022-12-10T00:37:43;1.20;99.90
23073;DHT22;34865;51.046;3.732;2022-12-10T00:40:15;1.10;99.90
23073;DHT22;34865;51.046;3.732;2022-12-10T00:42:46;1.00;99.90
23073;DHT22;34865;51.046;3.732;2022-12-10T00:45:20;1.10;99.90
23073;DHT22;34865;51.046;3.732;2022-12-10T00:47:53;1.30;99.90
23073;DHT22;34865;51.046;3.732;2022-12-10T00:50:30;1.50;99.90
23073;DHT22;34865;51.046;3.732;2022-12-10T00:52:59;1.70;99.90
23073;DHT22;34865;51.046;3.732;2022-12-10T00:55:37;1.90;99.90
23073;DHT22;34865;51.046;3.732;2022-12-10T00:58:09;2.00;99.90
23073;DHT22;34865;51.046;3.732;2022-12-10T01:00:40;2.00;99.90
23073;DHT22;34865;51.046;3.732;2022-12-10T01:03:11;2.00;99.90
23073;DHT22;34865;51.046;3.732;2022-12-10T01:05:43;1.90;99.90
23073;DHT22;34865;51.046;3.732;2022-12-10T01:08:09;2.00;99.90
23073;DHT22;34865;51.046;3.732;2022-12-10T01:10:37;2.20;99.90
23073;DHT22;34865;51.046;3.732;2022-12-10T01:13:05;2.10;99.90
23073;DHT22;34865;51.046;3.732;2022-12-10T01:15:31;2.20;99.90
23073;DHT22;34865;51.046;3.732;2022-12-10T01:18:07;2.30;99.90
23073;DHT22;34865;51.046;3.732;2022-12-10T01:20:35;2.20;99.90
23073;DHT22;34865;51.046;3.732;2022-12-10T01:23:12;2.20;99.90
23073;DHT22;34865;51.046;3.732;2022-12-10T01:25:38;2.20;99.90
23073;DHT22;34865;51.046;3.732;2022-12-10T01:28:06;2.20;99.90
23073;DHT22;34865;51.046;3.732;2022-12-10T01:30:35;2.10;99.90
23073;DHT22;34865;51.046;3.732;2022-12-10T01:33:04;1.70;99.90
23073;DHT22;34865;51.046;3.732;2022-12-10T01:35:38;1.50;99.90
23073;DHT22;34865;51.046;3.732;2022-12-10T01:38:04;1.30;99.90
23073;DHT22;34865;51.046;3.732;2022-12-10T01:40:36;1.30;99.90
23073;DHT22;34865;51.046;3.732;2022-12-10T01:43:02;1.30;99.90
23073;DHT22;34865;51.046;3.732;2022-12-10T01:45:28;1.60;99.90
23073;DHT22;34865;51.046;3.732;2022-12-10T01:47:56;1.90;99.90
23073;DHT22;34865;51.046;3.732;2022-12-10T01:50:25;2.00;99.90
23073;DHT22;34865;51.046;3.732;2022-12-10T01:52:54;1.80;99.90
23073;DHT22;34865;51.046;3.732;2022-12-10T01:58:11;2.10;99.90
23073;DHT22;34865;51.046;3.732;2022-12-10T02:04:10;1.90;99.90
23073;DHT22;34865;51.046;3.732;2022-12-10T02:06:45;2.00;99.90
23073;DHT22;34865;51.046;3.732;2022-12-10T02:12:30;2.10;99.90
23073;DHT22;34865;51.046;3.732;2022-12-10T02:17:44;2.20;99.90
23073;DHT22;34865;51.046;3.732;2022-12-10T02:23:08;1.70;99.90
23073;DHT22;34865;51.046;3.732;2022-12-10T02:25:49;1.70;99.90
23073;DHT22;34865;51.046;3.732;2022-12-10T02:28:30;1.90;99.90
23073;DHT22;34865;51.046;3.732;2022-12-10T02:31:01;2.10;99.90
23073;DHT22;34865;51.046;3.732;2022-12-10T02:33:28;2.20;99.90
23073;DHT22;34865;51.046;3.732;2022-12-10T02:35:57;2.00;99.90
23073;DHT22;34865;51.046;3.732;2022-12-10T02:38:31;1.90;99.90
23073;DHT22;34865;51.046;3.732;2022-12-10T02:41:01;2.20;99.90
23073;DHT22;34865;51.046;3.732;2022-12-10T02:43:29;2.20;99.90
23073;DHT22;34865;51.046;3.732;2022-12-10T02:46:00;2.40;99.90
23073;DHT22;34865;51.046;3.732;2022-12-10T02:48:31;2.30;99.90
23073;DHT22;34865;51.046;3.732;2022-12-10T02:50:58;1.80;99.90
23073;DHT22;34865;51.046;3.732;2022-12-10T02:53:26;1.70;99.90
23073;DHT22;34865;51.046;3.732;2022-12-10T02:56:22;1.90;99.90
23073;DHT22;34865;51.046;3.732;2022-12-10T02:59:21;2.10;99.90
23073;DHT22;34865;51.046;3.732;2022-12-10T03:02:06;2.00;99.90
23073;DHT22;34865;51.046;3.732;2022-12-10T03:07:30;2.20;99.90
23073;DHT22;34865;51.046;3.732;2022-12-10T03:10:04;2.20;99.90
23073;DHT22;34865;51.046;3.732;2022-12-10T03:12:45;2.30;99.90
23073;DHT22;34865;51.046;3.732;2022-12-10T03:15:14;2.20;99.90
23073;DHT22;34865;51.046;3.732;2022-12-10T03:17:42;2.50;99.90
23073;DHT22;34865;51.046;3.732;2022-12-10T03:20:12;2.20;99.90
23073;DHT22;34865;51.046;3.732;2022-12-10T03:22:40;2.30;99.90
23073;DHT22;34865;51.046;3.732;2022-12-10T03:25:12;1.90;99.90
23073;DHT22;34865;51.046;3.732;2022-12-10T03:27:39;1.70;99.90
23073;DHT22;34865;51.046;3.732;2022-12-10T03:30:07;1.90;99.90
23073;DHT22;34865;51.046;3.732;2022-12-10T03:32:36;2.20;99.90
23073;DHT22;34865;51.046;3.732;2022-12-10T03:35:04;2.30;99.90
23073;DHT22;34865;51.046;3.732;2022-12-10T03:37:31;2.20;99.90
23073;DHT22;34865;51.046;3.732;2022-12-10T03:39:58;2.10;99.90
23073;DHT22;34865;51.046;3.732;2022-12-10T03:42:24;2.30;99.90
23073;DHT22;34865;51.046;3.732;2022-12-10T03:44:51;2.40;99.90
23073;DHT22;34865;51.046;3.732;2022-12-10T03:47:26;2.50;99.90
23073;DHT22;34865;51.046;3.732;2022-12-10T03:49:54;2.60;99.90
23073;DHT22;34865;51.046;3.732;2022-12-10T03:52:20;2.60;99.90
23073;DHT22;34865;51.046;3.732;2022-12-10T03:54:48;2.90;99.90
23073;DHT22;34865;51.046;3.732;2022-12-10T03:57:14;2.70;99.90
23073;DHT22;34865;51.046;3.732;2022-12-10T03:59:40;2.70;99.90
23073;DHT22;34865;51.046;3.732;2022-12-10T04:02:08;2.80;99.90
23073;DHT22;34865;51.046;3.732;2022-12-10T04:04:33;2.90;99.90
23073;DHT22;34865;51.046;3.732;2022-12-10T04:06:59;2.70;99.90
23073;DHT22;34865;51.046;3.732;2022-12-10T04:09:25;2.90;99.90
23073;DHT22;34865;51.046;3.732;2022-12-10T04:11:57;2.90;99.90
23073;DHT22;34865;51.046;3.732;2022-12-10T04:14:24;2.80;99.90
23073;DHT22;34865;51.046;3.732;2022-12-10T04:17:11;2.90;99.90
23073;DHT22;34865;51.046;3.732;2022-12-10T04:19:37;2.60;99.90
23073;DHT22;34865;51.046;3.732;2022-12-10T04:22:04;2.80;99.90
23073;DHT22;34865;51.046;3.732;2022-12-10T04:24:48;2.80;99.90
23073;DHT22;34865;51.046;3.732;2022-12-10T04:27:38;2.70;99.90
23073;DHT22;34865;51.046;3.732;2022-12-10T04:30:08;2.80;99.90
23073;DHT22;34865;51.046;3.732;2022-12-10T04:32:37;2.80;99.90
23073;DHT22;34865;51.046;3.732;2022-12-10T04:35:03;2.70;99.90
23073;DHT22;34865;51.046;3.732;2022-12-10T04:37:29;2.60;99.90
23073;DHT22;34865;51.046;3.732;2022-12-10T04:40:00;2.50;99.90
23073;DHT22;34865;51.046;3.732;2022-12-10T04:42:27;2.50;99.90
23073;DHT22;34865;51.046;3.732;2022-12-10T04:44:53;2.60;99.90
23073;DHT22;34865;51.046;3.732;2022-12-10T04:47:24;2.60;99.90
23073;DHT22;34865;51.046;3.732;2022-12-10T04:49:51;2.80;99.90
23073;DHT22;34865;51.046;3.732;2022-12-10T04:52:17;2.70;99.90
23073;DHT22;34865;51.046;3.732;2022-12-10T04:54:43;2.70;99.90
23073;DHT22;34865;51.046;3.732;2022-12-10T04:57:10;2.60;99.90
23073;DHT22;34865;51.046;3.732;2022-12-10T04:59:36;2.70;99.90
23073;DHT22;34865;51.046;3.732;2022-12-10T05:02:11;2.40;99.90
23073;DHT22;34865;51.046;3.732;2022-12-10T05:04:40;2.70;99.90
23073;DHT22;34865;51.046;3.732;2022-12-10T05:07:06;2.70;99.90
23073;DHT22;34865;51.046;3.732;2022-12-10T05:09:31;2.90;99.90
23073;DHT22;34865;51.046;3.732;2022-12-10T05:11:57;3.00;99.90
23073;DHT22;34865;51.046;3.732;2022-12-10T05:14:26;3.00;99.90
23073;DHT22;34865;51.046;3.732;2022-12-10T05:17:02;3.00;99.90
23073;DHT22;34865;51.046;3.732;2022-12-10T05:19:31;2.70;99.90
23073;DHT22;34865;51.046;3.732;2022-12-10T05:21:57;2.40;99.90
23073;DHT22;34865;51.046;3.732;2022-12-10T05:24:47;2.50;99.90
23073;DHT22;34865;51.046;3.732;2022-12-10T05:27:13;2.80;99.90
23073;DHT22;34865;51.046;3.732;2022-12-10T05:29:42;2.80;99.90
23073;DHT22;34865;51.046;3.732;2022-12-10T05:32:11;3.00;99.90
23073;DHT22;34865;51.046;3.732;2022-12-10T05:34:37;2.60;99.90
23073;DHT22;34865;51.046;3.732;2022-12-10T05:37:03;2.70;99.90
23073;DHT22;34865;51.046;3.732;2022-12-10T05:39:31;2.60;99.90
23073;DHT22;34865;51.046;3.732;2022-12-10T05:41:59;2.80;99.90
23073;DHT22;34865;51.046;3.732;2022-12-10T05:44:25;2.90;99.90
23073;DHT22;34865;51.046;3.732;2022-12-10T05:46:52;2.90;99.90
23073;DHT22;34865;51.046;3.732;2022-12-10T05:49:21;2.80;99.90
23073;DHT22;34865;51.046;3.732;2022-12-10T05:51:46;2.80;99.90
23073;DHT22;34865;51.046;3.732;2022-12-10T05:54:12;2.80;99.90
23073;DHT22;34865;51.046;3.732;2022-12-10T05:56:38;2.80;99.90
23073;DHT22;34865;51.046;3.732;2022-12-10T05:59:08;2.80;99.90
23073;DHT22;34865;51.046;3.732;2022-12-10T06:01:34;2.50;99.90
23073;DHT22;34865;51.046;3.732;2022-12-10T06:04:02;2.30;99.90
23073;DHT22;34865;51.046;3.732;2022-12-10T06:06:33;2.30;99.90
23073;DHT22;34865;51.046;3.732;2022-12-10T06:08:59;2.50;99.90
23073;DHT22;34865;51.046;3.732;2022-12-10T06:11:26;2.60;99.90
23073;DHT22;34865;51.046;3.732;2022-12-10T06:13:52;2.90;99.90
23073;DHT22;34865;51.046;3.732;2022-12-10T06:16:21;2.90;99.90
23073;DHT22;34865;51.046;3.732;2022-12-10T06:18:47;2.90;99.90
23073;DHT22;34865;51.046;3.732;2022-12-10T06:21:16;2.80;99.90
23073;DHT22;34865;51.046;3.732;2022-12-10T06:23:42;2.70;99.90
23073;DHT22;34865;51.046;3.732;2022-12-10T06:26:15;2.80;99.90
23073;DHT22;34865;51.046;3.732;2022-12-10T06:28:41;2.90;99.90
23073;DHT22;34865;51.046;3.732;2022-12-10T06:31:07;2.70;99.90
23073;DHT22;34865;51.046;3.732;2022-12-10T06:33:33;2.70;99.90
23073;DHT22;34865;51.046;3.732;2022-12-10T06:36:03;2.90;99.90
23073;DHT22;34865;51.046;3.732;2022-12-10T06:38:32;2.90;99.90
23073;DHT22;34865;51.046;3.732;2022-12-10T06:41:04;2.90;99.90
23073;DHT22;34865;51.046;3.732;2022-12-10T06:43:31;3.00;99.90
23073;DHT22;34865;51.046;3.732;2022-12-10T06:45:56;3.10;99.90
23073;DHT22;34865;51.046;3.732;2022-12-10T06:48:22;3.00;99.90
23073;DHT22;34865;51.046;3.732;2022-12-10T06:50:48;3.00;99.90
23073;DHT22;34865;51.046;3.732;2022-12-10T06:53:14;2.90;99.90
23073;DHT22;34865;51.046;3.732;2022-12-10T06:55:42;2.80;99.90
23073;DHT22;34865;51.046;3.732;2022-12-10T06:58:07;2.90;99.90
23073;DHT22;34865;51.046;3.732;2022-12-10T07:00:33;2.90;99.90
23073;DHT22;34865;51.046;3.732;2022-12-10T07:02:59;3.00;99.90
23073;DHT22;34865;51.046;3.732;2022-12-10T07:05:28;3.10;99.90
23073;DHT22;34865;51.046;3.732;2022-12-10T07:07:57;3.10;99.90
23073;DHT22;34865;51.046;3.732;2022-12-10T07:10:23;2.80;99.90
23073;DHT22;34865;51.046;3.732;2022-12-10T07:12:48;2.50;99.90
23073;DHT22;34865;51.046;3.732;2022-12-10T07:15:17;2.50;99.90
23073;DHT22;34865;51.046;3.732;2022-12-10T07:17:49;2.70;99.90
23073;DHT22;34865;51.046;3.732;2022-12-10T07:20:15;2.70;99.90
23073;DHT22;34865;51.046;3.732;2022-12-10T07:22:41;2.80;99.90
23073;DHT22;34865;51.046;3.732;2022-12-10T07:25:12;2.90;99.90
23073;DHT22;34865;51.046;3.732;2022-12-10T07:27:40;2.90;99.90
23073;DHT22;34865;51.046;3.732;2022-12-10T07:30:07;2.90;99.90
23073;DHT22;34865;51.046;3.732;2022-12-10T07:32:33;2.90;99.90
23073;DHT22;34865;51.046;3.732;2022-12-10T07:34:59;2.80;99.90
23073;DHT22;34865;51.046;3.732;2022-12-10T07:37:27;2.80;99.90
23073;DHT22;34865;51.046;3.732;2022-12-10T07:39:53;2.90;99.90
23073;DHT22;34865;51.046;3.732;2022-12-10T07:42:22;2.70;99.90
23073;DHT22;34865;51.046;3.732;2022-12-10T07:44:48;2.40;99.90
23073;DHT22;34865;51.046;3.732;2022-12-10T07:47:14;2.40;99.90
23073;DHT22;34865;51.046;3.732;2022-12-10T07:49:39;2.50;99.90
23073;DHT22;34865;51.046;3.732;2022-12-10T07:52:10;2.50;99.90
23073;DHT22;34865;51.046;3.732;2022-12-10T07:54:36;2.60;99.90
23073;DHT22;34865;51.046;3.732;2022-12-10T07:57:02;2.70;99.90
23073;DHT22;34865;51.046;3.732;2022-12-10T07:59:28;2.80;99.90
23073;DHT22;34865;51.046;3.732;2022-12-10T08:01:56;2.80;99.90
23073;DHT22;34865;51.046;3.732;2022-12-10T08:04:28;2.70;99.90
23073;DHT22;34865;51.046;3.732;2022-12-10T08:06:55;2.70;99.90
23073;DHT22;34865;51.046;3.732;2022-12-10T08:09:24;2.70;99.90
23073;DHT22;34865;51.046;3.732;2022-12-10T08:11:50;2.70;99.90
23073;DHT22;34865;51.046;3.732;2022-12-10T08:14:18;2.70;99.90
23073;DHT22;34865;51.046;3.732;2022-12-10T08:16:52;3.10;99.90
23073;DHT22;34865;51.046;3.732;2022-12-10T08:19:20;3.10;99.90
23073;DHT22;34865;51.046;3.732;2022-12-10T08:21:49;2.90;99.90
23073;DHT22;34865;51.046;3.732;2022-12-10T08:24:15;2.70;99.90
23073;DHT22;34865;51.046;3.732;2022-12-10T08:26:41;2.90;99.90
23073;DHT22;34865;51.046;3.732;2022-12-10T08:29:07;3.00;99.90
23073;DHT22;34865;51.046;3.732;2022-12-10T08:31:33;3.10;99.90
23073;DHT22;34865;51.046;3.732;2022-12-10T08:33:59;3.20;99.90
23073;DHT22;34865;51.046;3.732;2022-12-10T08:36:24;3.30;99.90
23073;DHT22;34865;51.046;3.732;2022-12-10T08:38:50;3.10;99.90
23073;DHT22;34865;51.046;3.732;2022-12-10T08:41:20;3.00;99.90
23073;DHT22;34865;51.046;3.732;2022-12-10T08:43:46;3.30;99.90
23073;DHT22;34865;51.046;3.732;2022-12-10T08:46:13;3.40;99.90
23073;DHT22;34865;51.046;3.732;2022-12-10T08:48:40;3.40;99.90
23073;DHT22;34865;51.046;3.732;2022-12-10T08:51:07;3.10;99.90
23073;DHT22;34865;51.046;3.732;2022-12-10T08:53:33;3.10;99.90
23073;DHT22;34865;51.046;3.732;2022-12-10T08:56:01;3.00;99.90
23073;DHT22;34865;51.046;3.732;2022-12-10T08:58:28;3.10;99.90
23073;DHT22;34865;51.046;3.732;2022-12-10T09:00:53;3.30;99.90
23073;DHT22;34865;51.046;3.732;2022-12-10T09:03:24;3.40;99.90
23073;DHT22;34865;51.046;3.732;2022-12-10T09:05:53;3.30;99.90
23073;DHT22;34865;51.046;3.732;2022-12-10T09:08:21;3.50;99.90
23073;DHT22;34865;51.046;3.732;2022-12-10T09:10:53;3.90;99.90
23073;DHT22;34865;51.046;3.732;2022-12-10T09:13:22;3.70;99.90
23073;DHT22;34865;51.046;3.732;2022-12-10T09:15:59;3.50;99.90
23073;DHT22;34865;51.046;3.732;2022-12-10T09:18:35;3.40;99.90
23073;DHT22;34865;51.046;3.732;2022-12-10T09:21:09;3.20;99.90
23073;DHT22;34865;51.046;3.732;2022-12-10T09:23:37;3.50;99.90
23073;DHT22;34865;51.046;3.732;2022-12-10T09:26:10;3.80;99.90
23073;DHT22;34865;51.046;3.732;2022-12-10T09:28:36;3.80;99.90
23073;DHT22;34865;51.046;3.732;2022-12-10T09:31:07;3.90;99.90
23073;DHT22;34865;51.046;3.732;2022-12-10T09:33:37;4.10;99.90
23073;DHT22;34865;51.046;3.732;2022-12-10T09:36:10;4.40;99.90
23073;DHT22;34865;51.046;3.732;2022-12-10T09:38:41;4.60;99.90
23073;DHT22;34865;51.046;3.732;2022-12-10T09:41:35;4.70;99.90
23073;DHT22;34865;51.046;3.732;2022-12-10T09:44:08;4.70;99.90
23073;DHT22;34865;51.046;3.732;2022-12-10T09:46:53;4.50;99.90
23073;DHT22;34865;51.046;3.732;2022-12-10T09:52:17;4.20;99.90
23073;DHT22;34865;51.046;3.732;2022-12-10T09:54:57;4.10;99.90
23073;DHT22;34865;51.046;3.732;2022-12-10T09:57:33;4.10;99.90
23073;DHT22;34865;51.046;3.732;2022-12-10T10:00:05;4.20;99.90
23073;DHT22;34865;51.046;3.732;2022-12-10T10:02:45;4.10;99.90
23073;DHT22;34865;51.046;3.732;2022-12-10T10:05:24;4.30;99.90
23073;DHT22;34865;51.046;3.732;2022-12-10T10:08:11;4.20;99.90
23073;DHT22;34865;51.046;3.732;2022-12-10T10:10:44;4.00;99.90
23073;DHT22;34865;51.046;3.732;2022-12-10T10:13:40;3.90;99.90
23073;DHT22;34865;51.046;3.732;2022-12-10T10:19:18;4.10;99.90
23073;DHT22;34865;51.046;3.732;2022-12-10T10:21:59;4.30;99.90
23073;DHT22;34865;51.046;3.732;2022-12-10T10:24:48;4.50;99.90
23073;DHT22;34865;51.046;3.732;2022-12-10T10:27:23;4.30;99.90
23073;DHT22;34865;51.046;3.732;2022-12-10T10:29:57;4.20;99.90
23073;DHT22;34865;51.046;3.732;2022-12-10T10:32:51;4.40;99.90
23073;DHT22;34865;51.046;3.732;2022-12-10T10:35:32;4.40;99.90
23073;DHT22;34865;51.046;3.732;2022-12-10T10:38:23;4.50;99.90
23073;DHT22;34865;51.046;3.732;2022-12-10T10:41:02;4.70;99.90
23073;DHT22;34865;51.046;3.732;2022-12-10T10:43:40;4.50;99.90
23073;DHT22;34865;51.046;3.732;2022-12-10T10:46:17;4.40;99.90
23073;DHT22;34865;51.046;3.732;2022-12-10T10:48:47;4.20;99.90
23073;DHT22;34865;51.046;3.732;2022-12-10T10:51:20;4.20;99.90
23073;DHT22;34865;51.046;3.732;2022-12-10T10:53:52;4.30;99.90
23073;DHT22;34865;51.046;3.732;2022-12-10T10:56:29;4.20;99.90
23073;DHT22;34865;51.046;3.732;2022-12-10T10:59:04;4.40;99.90
23073;DHT22;34865;51.046;3.732;2022-12-10T11:01:47;4.50;99.90
23073;DHT22;34865;51.046;3.732;2022-12-10T11:04:24;4.50;99.90
23073;DHT22;34865;51.046;3.732;2022-12-10T11:06:56;4.70;99.90
23073;DHT22;34865;51.046;3.732;2022-12-10T11:09:28;4.50;99.90
23073;DHT22;34865;51.046;3.732;2022-12-10T11:12:04;4.50;99.90
23073;DHT22;34865;51.046;3.732;2022-12-10T11:14:39;4.80;99.90
23073;DHT22;34865;51.046;3.732;2022-12-10T11:17:18;4.90;99.90
23073;DHT22;34865;51.046;3.732;2022-12-10T11:20:12;4.60;99.90
23073;DHT22;34865;51.046;3.732;2022-12-10T11:22:52;4.50;99.90
23073;DHT22;34865;51.046;3.732;2022-12-10T11:25:45;4.60;99.90
23073;DHT22;34865;51.046;3.732;2022-12-10T11:31:38;5.00;99.90
23073;DHT22;34865;51.046;3.732;2022-12-10T11:34:21;5.10;99.90
23073;DHT22;34865;51.046;3.732;2022-12-10T11:37:28;5.20;99.90
23073;DHT22;34865;51.046;3.732;2022-12-10T11:40:06;5.30;99.90
23073;DHT22;34865;51.046;3.732;2022-12-10T11:53:29;4.70;99.90
23073;DHT22;34865;51.046;3.732;2022-12-10T11:56:24;5.00;99.90
23073;DHT22;34865;51.046;3.732;2022-12-10T11:59:29;4.70;99.90
23073;DHT22;34865;51.046;3.732;2022-12-10T12:08:03;4.90;99.90
23073;DHT22;34865;51.046;3.732;2022-12-10T12:13:53;4.90;99.90
23073;DHT22;34865;51.046;3.732;2022-12-10T12:19:31;4.90;99.90
23073;DHT22;34865;51.046;3.732;2022-12-10T12:22:17;5.10;99.90
23073;DHT22;34865;51.046;3.732;2022-12-10T12:24:59;4.90;99.90
23073;DHT22;34865;51.046;3.732;2022-12-10T12:30:10;5.10;99.90
23073;DHT22;34865;51.046;3.732;2022-12-10T12:33:08;5.30;99.90
23073;DHT22;34865;51.046;3.732;2022-12-10T12:35:55;5.20;99.90
23073;DHT22;34865;51.046;3.732;2022-12-10T12:38:30;5.40;99.90
23073;DHT22;34865;51.046;3.732;2022-12-10T12:41:45;5.30;99.90
23073;DHT22;34865;51.046;3.732;2022-12-10T12:44:31;5.10;99.90
23073;DHT22;34865;51.046;3.732;2022-12-10T12:46:58;5.40;99.90
23073;DHT22;34865;51.046;3.732;2022-12-10T12:49:34;5.20;99.90
23073;DHT22;34865;51.046;3.732;2022-12-10T12:52:13;5.20;99.90
23073;DHT22;34865;51.046;3.732;2022-12-10T12:54:42;5.30;99.90
23073;DHT22;34865;51.046;3.732;2022-12-10T12:57:26;5.30;99.90
23073;DHT22;34865;51.046;3.732;2022-12-10T13:00:05;5.20;99.90
23073;DHT22;34865;51.046;3.732;2022-12-10T13:05:53;5.10;99.90
23073;DHT22;34865;51.046;3.732;2022-12-10T13:08:35;5.00;99.90
23073;DHT22;34865;51.046;3.732;2022-12-10T13:14:57;5.20;99.90
23073;DHT22;34865;51.046;3.732;2022-12-10T13:17:37;4.90;99.90
23073;DHT22;34865;51.046;3.732;2022-12-10T13:20:27;5.00;99.90
23073;DHT22;34865;51.046;3.732;2022-12-10T13:23:03;5.10;99.90
23073;DHT22;34865;51.046;3.732;2022-12-10T13:28:41;5.10;99.90
23073;DHT22;34865;51.046;3.732;2022-12-10T13:31:32;4.90;99.90
23073;DHT22;34865;51.046;3.732;2022-12-10T13:37:58;5.00;99.90
23073;DHT22;34865;51.046;3.732;2022-12-10T13:40:57;5.10;99.90
23073;DHT22;34865;51.046;3.732;2022-12-10T14:08:28;5.00;99.90
23073;DHT22;34865;51.046;3.732;2022-12-10T14:11:05;4.70;99.90
23073;DHT22;34865;51.046;3.732;2022-12-10T14:17:24;4.60;99.90
23073;DHT22;34865;51.046;3.732;2022-12-10T14:20:07;4.70;99.90
23073;DHT22;34865;51.046;3.732;2022-12-10T14:22:51;4.50;99.90
23073;DHT22;34865;51.046;3.732;2022-12-10T14:25:50;4.30;99.90
23073;DHT22;34865;51.046;3.732;2022-12-10T14:28:28;4.30;99.90
23073;DHT22;34865;51.046;3.732;2022-12-10T14:34:40;4.30;99.90
23073;DHT22;34865;51.046;3.732;2022-12-10T14:37:13;4.20;99.90
23073;DHT22;34865;51.046;3.732;2022-12-10T14:39:47;4.20;99.90
23073;DHT22;34865;51.046;3.732;2022-12-10T14:42:24;4.30;99.90
23073;DHT22;34865;51.046;3.732;2022-12-10T14:45:20;4.40;99.90
23073;DHT22;34865;51.046;3.732;2022-12-10T14:48:00;4.30;99.90
23073;DHT22;34865;51.046;3.732;2022-12-10T14:50:51;4.20;99.90
23073;DHT22;34865;51.046;3.732;2022-12-10T14:56:33;4.10;99.90
23073;DHT22;34865;51.046;3.732;2022-12-10T14:59:19;4.00;99.90
23073;DHT22;34865;51.046;3.732;2022-12-10T15:01:54;4.00;99.90
23073;DHT22;34865;51.046;3.732;2022-12-10T15:04:39;4.00;99.90
23073;DHT22;34865;51.046;3.732;2022-12-10T15:07:17;4.10;99.90
23073;DHT22;34865;51.046;3.732;2022-12-10T15:09:52;4.10;99.90
23073;DHT22;34865;51.046;3.732;2022-12-10T15:12:48;4.20;99.90
23073;DHT22;34865;51.046;3.732;2022-12-10T15:15:37;4.30;99.90
23073;DHT22;34865;51.046;3.732;2022-12-10T15:18:34;4.20;99.90
23073;DHT22;34865;51.046;3.732;2022-12-10T15:21:30;4.30;99.90
23073;DHT22;34865;51.046;3.732;2022-12-10T15:24:26;4.20;99.90
23073;DHT22;34865;51.046;3.732;2022-12-10T15:26:55;4.20;99.90
23073;DHT22;34865;51.046;3.732;2022-12-10T15:29:33;4.10;99.90
23073;DHT22;34865;51.046;3.732;2022-12-10T15:32:29;4.20;99.90
23073;DHT22;34865;51.046;3.732;2022-12-10T15:35:07;4.20;99.90
23073;DHT22;34865;51.046;3.732;2022-12-10T15:38:12;4.10;99.90
23073;DHT22;34865;51.046;3.732;2022-12-10T15:44:16;4.20;99.90
23073;DHT22;34865;51.046;3.732;2022-12-10T15:49:44;4.10;99.90
23073;DHT22;34865;51.046;3.732;2022-12-10T15:52:48;4.10;99.90
23073;DHT22;34865;51.046;3.732;2022-12-10T15:55:23;4.00;99.90
23073;DHT22;34865;51.046;3.732;2022-12-10T15:58:02;4.00;99.90
23073;DHT22;34865;51.046;3.732;2022-12-10T16:00:35;4.00;99.90
23073;DHT22;34865;51.046;3.732;2022-12-10T16:03:30;3.80;99.90
23073;DHT22;34865;51.046;3.732;2022-12-10T16:06:21;3.80;99.90
23073;DHT22;34865;51.046;3.732;2022-12-10T16:08:55;3.60;99.90
23073;DHT22;34865;51.046;3.732;2022-12-10T16:11:38;3.50;99.90
23073;DHT22;34865;51.046;3.732;2022-12-10T16:14:19;3.50;99.90
23073;DHT22;34865;51.046;3.732;2022-12-10T16:16:53;3.60;99.90
23073;DHT22;34865;51.046;3.732;2022-12-10T16:19:38;3.60;99.90
23073;DHT22;34865;51.046;3.732;2022-12-10T16:22:12;3.60;99.90
23073;DHT22;34865;51.046;3.732;2022-12-10T16:24:41;3.80;99.90
23073;DHT22;34865;51.046;3.732;2022-12-10T16:27:20;3.70;99.90
23073;DHT22;34865;51.046;3.732;2022-12-10T16:29:57;3.70;99.90
23073;DHT22;34865;51.046;3.732;2022-12-10T16:32:32;3.70;99.90
23073;DHT22;34865;51.046;3.732;2022-12-10T16:35:20;4.00;99.90
23073;DHT22;34865;51.046;3.732;2022-12-10T16:37:58;3.90;99.90
23073;DHT22;34865;51.046;3.732;2022-12-10T16:40:30;3.80;99.90
23073;DHT22;34865;51.046;3.732;2022-12-10T16:43:06;3.80;99.90
23073;DHT22;34865;51.046;3.732;2022-12-10T16:45:38;3.70;99.90
23073;DHT22;34865;51.046;3.732;2022-12-10T16:48:25;3.60;99.90
23073;DHT22;34865;51.046;3.732;2022-12-10T16:53:37;3.70;99.90
23073;DHT22;34865;51.046;3.732;2022-12-10T16:56:16;3.60;99.90
23073;DHT22;34865;51.046;3.732;2022-12-10T16:58:53;3.50;99.90
23073;DHT22;34865;51.046;3.732;2022-12-10T17:01:26;3.50;99.90
23073;DHT22;34865;51.046;3.732;2022-12-10T17:04:08;3.60;99.90
23073;DHT22;34865;51.046;3.732;2022-12-10T17:06:39;3.70;99.90
23073;DHT22;34865;51.046;3.732;2022-12-10T17:09:21;3.80;99.90
23073;DHT22;34865;51.046;3.732;2022-12-10T17:11:58;3.80;99.90
23073;DHT22;34865;51.046;3.732;2022-12-10T17:14:30;3.70;99.90
23073;DHT22;34865;51.046;3.732;2022-12-10T17:17:00;3.80;99.90
23073;DHT22;34865;51.046;3.732;2022-12-10T17:19:30;3.70;99.90
23073;DHT22;34865;51.046;3.732;2022-12-10T17:22:01;3.80;99.90
23073;DHT22;34865;51.046;3.732;2022-12-10T17:24:37;3.80;99.90
23073;DHT22;34865;51.046;3.732;2022-12-10T17:27:10;3.80;99.90
23073;DHT22;34865;51.046;3.732;2022-12-10T17:29:40;3.90;99.90
23073;DHT22;34865;51.046;3.732;2022-12-10T17:32:13;3.90;99.90
23073;DHT22;34865;51.046;3.732;2022-12-10T17:34:44;3.90;99.90
23073;DHT22;34865;51.046;3.732;2022-12-10T17:37:16;3.80;99.90
23073;DHT22;34865;51.046;3.732;2022-12-10T17:39:43;3.80;99.90
23073;DHT22;34865;51.046;3.732;2022-12-10T17:42:45;3.90;99.90
23073;DHT22;34865;51.046;3.732;2022-12-10T17:45:27;4.10;99.90
23073;DHT22;34865;51.046;3.732;2022-12-10T17:48:12;3.90;99.90
23073;DHT22;34865;51.046;3.732;2022-12-10T17:50:38;3.90;99.90
23073;DHT22;34865;51.046;3.732;2022-12-10T17:53:10;4.00;99.90
23073;DHT22;34865;51.046;3.732;2022-12-10T17:55:44;4.00;99.90
23073;DHT22;34865;51.046;3.732;2022-12-10T17:58:15;3.70;99.90
23073;DHT22;34865;51.046;3.732;2022-12-10T18:00:52;3.60;99.90
23073;DHT22;34865;51.046;3.732;2022-12-10T18:03:26;3.60;99.90
23073;DHT22;34865;51.046;3.732;2022-12-10T18:06:00;3.70;99.90
23073;DHT22;34865;51.046;3.732;2022-12-10T18:08:29;3.80;99.90
23073;DHT22;34865;51.046;3.732;2022-12-10T18:10:55;4.00;99.90
23073;DHT22;34865;51.046;3.732;2022-12-10T18:13:22;3.90;99.90
23073;DHT22;34865;51.046;3.732;2022-12-10T18:15:48;3.80;99.90
23073;DHT22;34865;51.046;3.732;2022-12-10T18:18:14;3.80;99.90